KCLE/CLE METAR and TAF weather

Enter ICAO airport designator
Station Type Date Time Source
KCLE METAR 2018/06/25 16:51 UTC NOAA

KCLE 251651Z 36011KT 10SM SCT024 OVC250 23/17 A3021 RMK AO2 SLP226 T02330172 $


Station Type Date Time Source
KCLE Decoded METAR 2018/06/25 16:51 UTC NOAA

CLEVELAND-HOPKINS INTERNATIONAL , OH, United States (KCLE) 41-24N 081-51W 236M
Jun 25, 2018 - 12:51 PM EDT / 2018.06.25 1651 UTC
Wind: from the N (360 degrees) at 13 MPH (11 KT):0
Visibility: 10 mile(s):0
Sky conditions: overcast
Temperature: 73.9 F (23.3 C)
Dew Point: 63.0 F (17.2 C)
Relative Humidity: 68%
Pressure (altimeter): 30.21 in. Hg (1023 hPa)
ob: KCLE 251651Z 36011KT 10SM SCT024 OVC250 23/17 A3021 RMK AO2 SLP226 T02330172
cycle: 17

Station Type Date Time Source
KCLE TAF 2018/06/25 16:34 UTC NOAA

TAF
AMD KCLE 251532Z 2516/2618 04005KT P6SM OVC150
FM252000 04008KT P6SM SCT150


Example: see airport list